sensor_id;sensor_type;location;lat;lon;timestamp;P1;durP1;ratioP1;P2;durP2;ratioP2
25917;SDS011;13899;51.174;4.456;2023-02-28T00:00:09;11.43;;;10.00;;
25917;SDS011;13899;51.174;4.456;2023-02-28T00:02:37;10.55;;;9.55;;
25917;SDS011;13899;51.174;4.456;2023-02-28T00:05:04;11.30;;;10.20;;
25917;SDS011;13899;51.174;4.456;2023-02-28T00:07:30;11.70;;;10.50;;
25917;SDS011;13899;51.174;4.456;2023-02-28T00:09:56;8.68;;;7.85;;
25917;SDS011;13899;51.174;4.456;2023-02-28T00:12:22;10.87;;;9.90;;
25917;SDS011;13899;51.174;4.456;2023-02-28T00:14:48;13.90;;;10.60;;
25917;SDS011;13899;51.174;4.456;2023-02-28T00:17:14;12.63;;;11.25;;
25917;SDS011;13899;51.174;4.456;2023-02-28T00:19:42;12.68;;;10.50;;
25917;SDS011;13899;51.174;4.456;2023-02-28T00:22:08;11.50;;;10.33;;
25917;SDS011;13899;51.174;4.456;2023-02-28T00:24:35;12.20;;;10.85;;
25917;SDS011;13899;51.174;4.456;2023-02-28T00:27:01;11.90;;;10.68;;
25917;SDS011;13899;51.174;4.456;2023-02-28T00:29:27;13.03;;;11.73;;
25917;SDS011;13899;51.174;4.456;2023-02-28T00:31:52;11.13;;;10.23;;
25917;SDS011;13899;51.174;4.456;2023-02-28T00:34:18;13.53;;;11.50;;
25917;SDS011;13899;51.174;4.456;2023-02-28T00:36:43;13.13;;;11.83;;
25917;SDS011;13899;51.174;4.456;2023-02-28T00:39:11;13.82;;;12.35;;
25917;SDS011;13899;51.174;4.456;2023-02-28T00:41:36;14.73;;;12.00;;
25917;SDS011;13899;51.174;4.456;2023-02-28T00:44:02;13.40;;;11.77;;
25917;SDS011;13899;51.174;4.456;2023-02-28T00:46:28;13.43;;;11.50;;
25917;SDS011;13899;51.174;4.456;2023-02-28T00:48:53;14.80;;;11.93;;
25917;SDS011;13899;51.174;4.456;2023-02-28T00:51:19;14.20;;;9.23;;
25917;SDS011;13899;51.174;4.456;2023-02-28T00:53:44;13.73;;;10.80;;
25917;SDS011;13899;51.174;4.456;2023-02-28T00:56:10;10.27;;;9.30;;
25917;SDS011;13899;51.174;4.456;2023-02-28T00:58:35;9.93;;;9.00;;
25917;SDS011;13899;51.174;4.456;2023-02-28T01:01:01;15.17;;;11.33;;
25917;SDS011;13899;51.174;4.456;2023-02-28T01:03:27;14.77;;;12.30;;
25917;SDS011;13899;51.174;4.456;2023-02-28T01:05:53;16.57;;;12.83;;
25917;SDS011;13899;51.174;4.456;2023-02-28T01:08:18;14.33;;;12.80;;
25917;SDS011;13899;51.174;4.456;2023-02-28T01:10:44;13.67;;;12.47;;
25917;SDS011;13899;51.174;4.456;2023-02-28T01:13:10;15.07;;;12.37;;
25917;SDS011;13899;51.174;4.456;2023-02-28T01:15:36;14.93;;;12.63;;
25917;SDS011;13899;51.174;4.456;2023-02-28T01:18:04;13.63;;;12.18;;
25917;SDS011;13899;51.174;4.456;2023-02-28T01:20:30;17.00;;;12.73;;
25917;SDS011;13899;51.174;4.456;2023-02-28T01:22:55;10.30;;;9.20;;
25917;SDS011;13899;51.174;4.456;2023-02-28T01:25:21;14.13;;;12.43;;
25917;SDS011;13899;51.174;4.456;2023-02-28T01:27:46;10.87;;;9.53;;
25917;SDS011;13899;51.174;4.456;2023-02-28T01:30:12;11.63;;;10.50;;
25917;SDS011;13899;51.174;4.456;2023-02-28T01:32:38;10.33;;;9.33;;
25917;SDS011;13899;51.174;4.456;2023-02-28T01:35:03;13.40;;;12.13;;
25917;SDS011;13899;51.174;4.456;2023-02-28T01:37:29;13.15;;;11.95;;
25917;SDS011;13899;51.174;4.456;2023-02-28T01:39:55;11.30;;;9.67;;
25917;SDS011;13899;51.174;4.456;2023-02-28T01:42:21;10.97;;;9.77;;
25917;SDS011;13899;51.174;4.456;2023-02-28T01:47:21;13.93;;;12.15;;
25917;SDS011;13899;51.174;4.456;2023-02-28T01:49:49;12.18;;;10.98;;
25917;SDS011;13899;51.174;4.456;2023-02-28T01:52:16;13.30;;;11.73;;
25917;SDS011;13899;51.174;4.456;2023-02-28T01:54:44;15.30;;;12.25;;
25917;SDS011;13899;51.174;4.456;2023-02-28T01:57:15;15.88;;;11.52;;
25917;SDS011;13899;51.174;4.456;2023-02-28T02:00:03;13.77;;;12.40;;
25917;SDS011;13899;51.174;4.456;2023-02-28T02:02:32;13.20;;;11.70;;
25917;SDS011;13899;51.174;4.456;2023-02-28T02:07:36;13.40;;;11.68;;
25917;SDS011;13899;51.174;4.456;2023-02-28T02:10:15;16.83;;;12.32;;
25917;SDS011;13899;51.174;4.456;2023-02-28T02:17:49;12.90;;;11.60;;
25917;SDS011;13899;51.174;4.456;2023-02-28T02:20:38;13.18;;;11.90;;
25917;SDS011;13899;51.174;4.456;2023-02-28T02:35:25;13.75;;;11.48;;
25917;SDS011;13899;51.174;4.456;2023-02-28T02:40:25;12.90;;;11.50;;
25917;SDS011;13899;51.174;4.456;2023-02-28T02:45:44;12.07;;;10.90;;
25917;SDS011;13899;51.174;4.456;2023-02-28T02:48:16;11.90;;;10.77;;
25917;SDS011;13899;51.174;4.456;2023-02-28T02:51:06;12.27;;;10.43;;
25917;SDS011;13899;51.174;4.456;2023-02-28T02:53:37;12.02;;;10.82;;
25917;SDS011;13899;51.174;4.456;2023-02-28T02:56:14;12.25;;;11.05;;
25917;SDS011;13899;51.174;4.456;2023-02-28T02:58:43;14.57;;;11.73;;
25917;SDS011;13899;51.174;4.456;2023-02-28T03:01:18;13.05;;;11.63;;
25917;SDS011;13899;51.174;4.456;2023-02-28T03:03:52;13.70;;;11.27;;
25917;SDS011;13899;51.174;4.456;2023-02-28T03:06:39;12.27;;;11.00;;
25917;SDS011;13899;51.174;4.456;2023-02-28T03:09:04;13.77;;;11.33;;
25917;SDS011;13899;51.174;4.456;2023-02-28T03:11:30;13.93;;;11.63;;
25917;SDS011;13899;51.174;4.456;2023-02-28T03:19:45;12.73;;;11.48;;
25917;SDS011;13899;51.174;4.456;2023-02-28T03:27:39;15.98;;;10.60;;
25917;SDS011;13899;51.174;4.456;2023-02-28T03:30:35;14.27;;;12.00;;
25917;SDS011;13899;51.174;4.456;2023-02-28T03:33:14;13.23;;;11.93;;
25917;SDS011;13899;51.174;4.456;2023-02-28T03:36:08;12.50;;;11.27;;
25917;SDS011;13899;51.174;4.456;2023-02-28T03:38:46;13.50;;;12.10;;
25917;SDS011;13899;51.174;4.456;2023-02-28T03:41:21;12.98;;;11.32;;
25917;SDS011;13899;51.174;4.456;2023-02-28T03:43:54;12.57;;;11.27;;
25917;SDS011;13899;51.174;4.456;2023-02-28T03:46:24;14.48;;;11.25;;
25917;SDS011;13899;51.174;4.456;2023-02-28T03:48:55;12.48;;;11.20;;
25917;SDS011;13899;51.174;4.456;2023-02-28T03:51:42;11.93;;;10.73;;
25917;SDS011;13899;51.174;4.456;2023-02-28T03:54:15;13.10;;;10.80;;
25917;SDS011;13899;51.174;4.456;2023-02-28T03:59:15;12.77;;;11.13;;
25917;SDS011;13899;51.174;4.456;2023-02-28T04:01:47;12.35;;;11.10;;
25917;SDS011;13899;51.174;4.456;2023-02-28T04:04:13;14.13;;;10.40;;
25917;SDS011;13899;51.174;4.456;2023-02-28T04:06:40;13.98;;;11.00;;
25917;SDS011;13899;51.174;4.456;2023-02-28T04:09:08;16.98;;;12.20;;
25917;SDS011;13899;51.174;4.456;2023-02-28T04:11:36;13.57;;;11.40;;
25917;SDS011;13899;51.174;4.456;2023-02-28T04:14:03;15.07;;;11.50;;
25917;SDS011;13899;51.174;4.456;2023-02-28T04:16:30;15.85;;;12.05;;
25917;SDS011;13899;51.174;4.456;2023-02-28T04:18:56;14.07;;;12.27;;
25917;SDS011;13899;51.174;4.456;2023-02-28T04:21:32;15.48;;;10.95;;
25917;SDS011;13899;51.174;4.456;2023-02-28T04:24:06;12.40;;;11.10;;
25917;SDS011;13899;51.174;4.456;2023-02-28T04:26:34;11.82;;;10.73;;
25917;SDS011;13899;51.174;4.456;2023-02-28T04:29:03;14.30;;;11.02;;
25917;SDS011;13899;51.174;4.456;2023-02-28T04:31:30;13.35;;;10.80;;
25917;SDS011;13899;51.174;4.456;2023-02-28T04:33:56;12.00;;;10.80;;
25917;SDS011;13899;51.174;4.456;2023-02-28T04:36:21;12.35;;;11.13;;
25917;SDS011;13899;51.174;4.456;2023-02-28T04:38:48;15.25;;;10.18;;
25917;SDS011;13899;51.174;4.456;2023-02-28T04:41:14;12.38;;;10.77;;
25917;SDS011;13899;51.174;4.456;2023-02-28T04:43:41;12.55;;;11.27;;
25917;SDS011;13899;51.174;4.456;2023-02-28T04:46:07;9.03;;;7.93;;
25917;SDS011;13899;51.174;4.456;2023-02-28T04:48:33;10.90;;;9.87;;
25917;SDS011;13899;51.174;4.456;2023-02-28T04:51:01;11.43;;;10.23;;
25917;SDS011;13899;51.174;4.456;2023-02-28T04:53:28;11.18;;;10.07;;
25917;SDS011;13899;51.174;4.456;2023-02-28T04:55:54;11.30;;;10.10;;
25917;SDS011;13899;51.174;4.456;2023-02-28T04:58:24;11.57;;;10.45;;
25917;SDS011;13899;51.174;4.456;2023-02-28T05:00:50;11.70;;;10.50;;
25917;SDS011;13899;51.174;4.456;2023-02-28T05:03:16;9.88;;;8.75;;
25917;SDS011;13899;51.174;4.456;2023-02-28T05:05:42;19.53;;;9.30;;
25917;SDS011;13899;51.174;4.456;2023-02-28T05:08:08;12.20;;;9.50;;
25917;SDS011;13899;51.174;4.456;2023-02-28T05:10:34;12.32;;;9.48;;
25917;SDS011;13899;51.174;4.456;2023-02-28T05:13:00;14.45;;;9.07;;
25917;SDS011;13899;51.174;4.456;2023-02-28T05:15:26;10.17;;;9.03;;
25917;SDS011;13899;51.174;4.456;2023-02-28T05:17:52;13.53;;;9.13;;
25917;SDS011;13899;51.174;4.456;2023-02-28T05:20:17;11.40;;;8.97;;
25917;SDS011;13899;51.174;4.456;2023-02-28T05:22:43;12.57;;;8.97;;
25917;SDS011;13899;51.174;4.456;2023-02-28T05:25:19;17.95;;;9.20;;
25917;SDS011;13899;51.174;4.456;2023-02-28T05:27:47;12.20;;;9.68;;
25917;SDS011;13899;51.174;4.456;2023-02-28T05:30:12;10.57;;;9.27;;
25917;SDS011;13899;51.174;4.456;2023-02-28T05:32:38;14.23;;;9.93;;
25917;SDS011;13899;51.174;4.456;2023-02-28T05:35:08;17.13;;;8.95;;
25917;SDS011;13899;51.174;4.456;2023-02-28T05:37:35;25.30;;;10.55;;
25917;SDS011;13899;51.174;4.456;2023-02-28T05:40:01;21.73;;;11.57;;
25917;SDS011;13899;51.174;4.456;2023-02-28T05:42:30;22.10;;;9.55;;
25917;SDS011;13899;51.174;4.456;2023-02-28T05:44:56;29.67;;;9.33;;
25917;SDS011;13899;51.174;4.456;2023-02-28T05:47:22;29.77;;;9.83;;
25917;SDS011;13899;51.174;4.456;2023-02-28T05:49:47;18.20;;;8.93;;
25917;SDS011;13899;51.174;4.456;2023-02-28T05:52:13;7.90;;;7.10;;
25917;SDS011;13899;51.174;4.456;2023-02-28T05:54:39;10.17;;;8.33;;
25917;SDS011;13899;51.174;4.456;2023-02-28T05:57:05;7.53;;;6.80;;
25917;SDS011;13899;51.174;4.456;2023-02-28T05:59:30;9.63;;;8.57;;
25917;SDS011;13899;51.174;4.456;2023-02-28T06:01:56;14.13;;;7.67;;
25917;SDS011;13899;51.174;4.456;2023-02-28T06:04:21;9.70;;;8.80;;
25917;SDS011;13899;51.174;4.456;2023-02-28T06:06:47;9.27;;;8.40;;
25917;SDS011;13899;51.174;4.456;2023-02-28T06:11:39;13.83;;;8.80;;
25917;SDS011;13899;51.174;4.456;2023-02-28T06:14:05;8.20;;;6.53;;
25917;SDS011;13899;51.174;4.456;2023-02-28T06:16:37;8.73;;;7.82;;
25917;SDS011;13899;51.174;4.456;2023-02-28T06:19:03;9.63;;;8.37;;
25917;SDS011;13899;51.174;4.456;2023-02-28T06:21:31;10.02;;;8.38;;
25917;SDS011;13899;51.174;4.456;2023-02-28T06:23:58;9.85;;;8.52;;
25917;SDS011;13899;51.174;4.456;2023-02-28T06:26:24;11.27;;;9.33;;
25917;SDS011;13899;51.174;4.456;2023-02-28T06:28:50;8.73;;;7.90;;
25917;SDS011;13899;51.174;4.456;2023-02-28T06:31:16;9.43;;;8.53;;
25917;SDS011;13899;51.174;4.456;2023-02-28T06:36:09;9.63;;;8.50;;
25917;SDS011;13899;51.174;4.456;2023-02-28T06:38:37;12.35;;;8.32;;
25917;SDS011;13899;51.174;4.456;2023-02-28T06:41:03;9.63;;;8.67;;
25917;SDS011;13899;51.174;4.456;2023-02-28T06:43:31;13.82;;;9.60;;
25917;SDS011;13899;51.174;4.456;2023-02-28T06:45:59;9.20;;;8.30;;
25917;SDS011;13899;51.174;4.456;2023-02-28T06:48:26;12.90;;;9.48;;
25917;SDS011;13899;51.174;4.456;2023-02-28T06:50:52;10.95;;;9.07;;
25917;SDS011;13899;51.174;4.456;2023-02-28T06:53:26;10.45;;;8.73;;
25917;SDS011;13899;51.174;4.456;2023-02-28T06:55:52;12.03;;;8.83;;
25917;SDS011;13899;51.174;4.456;2023-02-28T06:58:18;9.73;;;8.80;;
25917;SDS011;13899;51.174;4.456;2023-02-28T07:00:44;8.53;;;7.40;;
25917;SDS011;13899;51.174;4.456;2023-02-28T07:03:11;13.98;;;8.48;;
25917;SDS011;13899;51.174;4.456;2023-02-28T07:05:40;8.48;;;7.70;;
25917;SDS011;13899;51.174;4.456;2023-02-28T07:08:06;9.13;;;8.07;;
25917;SDS011;13899;51.174;4.456;2023-02-28T07:10:32;8.88;;;7.68;;
25917;SDS011;13899;51.174;4.456;2023-02-28T07:12:59;12.55;;;8.10;;
25917;SDS011;13899;51.174;4.456;2023-02-28T07:15:25;8.43;;;7.63;;
25917;SDS011;13899;51.174;4.456;2023-02-28T07:17:50;11.37;;;8.40;;
25917;SDS011;13899;51.174;4.456;2023-02-28T07:20:16;9.93;;;8.73;;
25917;SDS011;13899;51.174;4.456;2023-02-28T07:22:42;8.90;;;7.53;;
25917;SDS011;13899;51.174;4.456;2023-02-28T07:25:08;8.80;;;7.90;;
25917;SDS011;13899;51.174;4.456;2023-02-28T07:27:34;8.02;;;7.20;;
25917;SDS011;13899;51.174;4.456;2023-02-28T07:30:05;8.10;;;7.30;;
25917;SDS011;13899;51.174;4.456;2023-02-28T07:32:38;10.35;;;7.13;;
25917;SDS011;13899;51.174;4.456;2023-02-28T07:35:17;8.07;;;7.28;;
25917;SDS011;13899;51.174;4.456;2023-02-28T07:37:47;9.20;;;7.55;;
25917;SDS011;13899;51.174;4.456;2023-02-28T07:44:27;9.15;;;8.02;;
25917;SDS011;13899;51.174;4.456;2023-02-28T07:47:14;9.60;;;7.40;;
25917;SDS011;13899;51.174;4.456;2023-02-28T07:49:41;10.27;;;6.35;;
25917;SDS011;13899;51.174;4.456;2023-02-28T07:52:06;11.10;;;8.67;;
25917;SDS011;13899;51.174;4.456;2023-02-28T07:54:32;9.97;;;9.00;;
25917;SDS011;13899;51.174;4.456;2023-02-28T07:56:58;11.40;;;8.73;;
25917;SDS011;13899;51.174;4.456;2023-02-28T07:59:26;8.98;;;8.27;;
25917;SDS011;13899;51.174;4.456;2023-02-28T08:01:51;11.87;;;7.97;;
25917;SDS011;13899;51.174;4.456;2023-02-28T08:04:17;8.33;;;7.40;;
25917;SDS011;13899;51.174;4.456;2023-02-28T08:06:43;7.07;;;6.37;;
25917;SDS011;13899;51.174;4.456;2023-02-28T08:11:55;9.57;;;7.60;;
25917;SDS011;13899;51.174;4.456;2023-02-28T08:14:21;8.77;;;7.93;;
25917;SDS011;13899;51.174;4.456;2023-02-28T08:16:47;9.23;;;8.32;;
25917;SDS011;13899;51.174;4.456;2023-02-28T08:19:13;8.60;;;7.80;;
25917;SDS011;13899;51.174;4.456;2023-02-28T08:21:39;7.93;;;7.27;;
25917;SDS011;13899;51.174;4.456;2023-02-28T08:24:05;7.70;;;7.07;;
25917;SDS011;13899;51.174;4.456;2023-02-28T08:26:31;6.90;;;6.32;;
25917;SDS011;13899;51.174;4.456;2023-02-28T08:28:56;7.67;;;6.73;;
25917;SDS011;13899;51.174;4.456;2023-02-28T08:31:22;7.43;;;6.87;;
25917;SDS011;13899;51.174;4.456;2023-02-28T08:33:48;10.20;;;8.07;;
25917;SDS011;13899;51.174;4.456;2023-02-28T08:36:16;7.35;;;6.75;;
25917;SDS011;13899;51.174;4.456;2023-02-28T08:38:42;8.48;;;7.55;;
25917;SDS011;13899;51.174;4.456;2023-02-28T08:41:09;6.10;;;5.63;;
25917;SDS011;13899;51.174;4.456;2023-02-28T08:43:36;7.75;;;7.05;;
25917;SDS011;13899;51.174;4.456;2023-02-28T08:46:11;7.43;;;6.82;;
25917;SDS011;13899;51.174;4.456;2023-02-28T08:48:38;7.03;;;6.32;;
25917;SDS011;13899;51.174;4.456;2023-02-28T08:51:09;8.07;;;6.63;;
25917;SDS011;13899;51.174;4.456;2023-02-28T08:53:37;5.95;;;5.45;;
25917;SDS011;13899;51.174;4.456;2023-02-28T08:56:13;7.53;;;6.72;;
25917;SDS011;13899;51.174;4.456;2023-02-28T08:58:41;6.40;;;5.88;;
25917;SDS011;13899;51.174;4.456;2023-02-28T09:01:14;8.83;;;5.87;;
25917;SDS011;13899;51.174;4.456;2023-02-28T09:03:42;5.43;;;4.75;;
25917;SDS011;13899;51.174;4.456;2023-02-28T09:06:09;6.10;;;3.95;;
25917;SDS011;13899;51.174;4.456;2023-02-28T09:08:35;4.95;;;3.92;;
25917;SDS011;13899;51.174;4.456;2023-02-28T09:11:01;5.83;;;4.97;;
25917;SDS011;13899;51.174;4.456;2023-02-28T09:13:27;4.03;;;3.70;;
25917;SDS011;13899;51.174;4.456;2023-02-28T09:15:54;4.22;;;3.78;;
25917;SDS011;13899;51.174;4.456;2023-02-28T09:18:22;4.15;;;3.80;;
25917;SDS011;13899;51.174;4.456;2023-02-28T09:20:47;5.13;;;3.87;;
25917;SDS011;13899;51.174;4.456;2023-02-28T09:23:13;5.83;;;4.00;;
25917;SDS011;13899;51.174;4.456;2023-02-28T09:25:44;5.43;;;4.47;;
25917;SDS011;13899;51.174;4.456;2023-02-28T09:28:17;6.00;;;4.63;;
25917;SDS011;13899;51.174;4.456;2023-02-28T09:30:44;4.97;;;4.28;;
25917;SDS011;13899;51.174;4.456;2023-02-28T09:33:11;4.68;;;4.28;;
25917;SDS011;13899;51.174;4.456;2023-02-28T09:35:38;6.78;;;3.78;;
25917;SDS011;13899;51.174;4.456;2023-02-28T09:38:03;3.93;;;3.13;;
25917;SDS011;13899;51.174;4.456;2023-02-28T09:40:34;4.00;;;3.60;;
25917;SDS011;13899;51.174;4.456;2023-02-28T09:43:02;4.30;;;2.47;;
25917;SDS011;13899;51.174;4.456;2023-02-28T09:45:32;7.80;;;2.80;;
25917;SDS011;13899;51.174;4.456;2023-02-28T09:48:03;3.25;;;2.50;;
25917;SDS011;13899;51.174;4.456;2023-02-28T09:51:22;2.25;;;2.05;;
25917;SDS011;13899;51.174;4.456;2023-02-28T09:53:31;2.40;;;2.20;;
25917;SDS011;13899;51.174;4.456;2023-02-28T09:56:02;3.33;;;2.80;;
25917;SDS011;13899;51.174;4.456;2023-02-28T09:58:37;4.28;;;3.88;;
25917;SDS011;13899;51.174;4.456;2023-02-28T10:09:24;2.45;;;1.63;;
25917;SDS011;13899;51.174;4.456;2023-02-28T10:12:04;1.70;;;1.60;;
25917;SDS011;13899;51.174;4.456;2023-02-28T10:14:34;5.00;;;1.50;;
25917;SDS011;13899;51.174;4.456;2023-02-28T10:17:04;2.50;;;1.67;;
25917;SDS011;13899;51.174;4.456;2023-02-28T10:22:27;2.85;;;1.65;;
25917;SDS011;13899;51.174;4.456;2023-02-28T10:25:21;1.63;;;1.50;;
25917;SDS011;13899;51.174;4.456;2023-02-28T10:28:13;1.60;;;1.45;;
25917;SDS011;13899;51.174;4.456;2023-02-28T10:30:43;1.63;;;1.50;;
25917;SDS011;13899;51.174;4.456;2023-02-28T10:33:25;2.08;;;1.80;;
25917;SDS011;13899;51.174;4.456;2023-02-28T10:35:59;2.17;;;1.60;;
25917;SDS011;13899;51.174;4.456;2023-02-28T10:41:06;2.10;;;1.90;;
25917;SDS011;13899;51.174;4.456;2023-02-28T10:43:33;2.85;;;2.58;;
25917;SDS011;13899;51.174;4.456;2023-02-28T10:48:38;3.65;;;3.40;;
25917;SDS011;13899;51.174;4.456;2023-02-28T10:51:14;1.40;;;1.30;;
25917;SDS011;13899;51.174;4.456;2023-02-28T10:53:54;1.80;;;1.33;;
25917;SDS011;13899;51.174;4.456;2023-02-28T10:56:25;5.05;;;4.75;;
25917;SDS011;13899;51.174;4.456;2023-02-28T10:58:58;1.45;;;1.35;;
25917;SDS011;13899;51.174;4.456;2023-02-28T11:01:44;1.67;;;1.25;;
25917;SDS011;13899;51.174;4.456;2023-02-28T11:04:18;1.50;;;1.40;;
25917;SDS011;13899;51.174;4.456;2023-02-28T11:07:01;4.97;;;4.70;;
25917;SDS011;13899;51.174;4.456;2023-02-28T11:09:34;3.33;;;3.13;;
25917;SDS011;13899;51.174;4.456;2023-02-28T11:12:04;4.72;;;4.43;;
25917;SDS011;13899;51.174;4.456;2023-02-28T11:14:47;1.50;;;1.40;;
25917;SDS011;13899;51.174;4.456;2023-02-28T11:17:20;4.22;;;3.22;;
25917;SDS011;13899;51.174;4.456;2023-02-28T11:19:50;1.58;;;1.45;;
25917;SDS011;13899;51.174;4.456;2023-02-28T11:22:19;2.13;;;2.03;;
25917;SDS011;13899;51.174;4.456;2023-02-28T11:24:50;3.47;;;3.15;;
25917;SDS011;13899;51.174;4.456;2023-02-28T11:27:25;1.50;;;1.40;;
25917;SDS011;13899;51.174;4.456;2023-02-28T11:29:54;2.00;;;1.90;;
25917;SDS011;13899;51.174;4.456;2023-02-28T11:32:20;7.35;;;7.05;;
25917;SDS011;13899;51.174;4.456;2023-02-28T11:35:04;1.50;;;1.40;;
25917;SDS011;13899;51.174;4.456;2023-02-28T11:37:41;1.40;;;1.30;;
25917;SDS011;13899;51.174;4.456;2023-02-28T11:40:18;2.33;;;1.58;;
25917;SDS011;13899;51.174;4.456;2023-02-28T11:48:48;3.65;;;3.45;;
25917;SDS011;13899;51.174;4.456;2023-02-28T11:51:21;2.75;;;1.50;;
25917;SDS011;13899;51.174;4.456;2023-02-28T12:02:21;2.20;;;2.05;;
25917;SDS011;13899;51.174;4.456;2023-02-28T12:04:41;2.05;;;1.50;;
25917;SDS011;13899;51.174;4.456;2023-02-28T12:10:47;1.65;;;1.48;;
25917;SDS011;13899;51.174;4.456;2023-02-28T12:13:41;12.38;;;11.80;;
25917;SDS011;13899;51.174;4.456;2023-02-28T12:22:12;2.58;;;2.47;;
25917;SDS011;13899;51.174;4.456;2023-02-28T12:27:37;4.65;;;4.35;;
25917;SDS011;13899;51.174;4.456;2023-02-28T12:32:42;9.07;;;8.60;;
25917;SDS011;13899;51.174;4.456;2023-02-28T12:35:16;1.67;;;1.50;;
25917;SDS011;13899;51.174;4.456;2023-02-28T12:37:51;1.60;;;1.50;;
25917;SDS011;13899;51.174;4.456;2023-02-28T12:40:28;11.05;;;10.55;;
25917;SDS011;13899;51.174;4.456;2023-02-28T12:43:19;5.80;;;5.50;;
25917;SDS011;13899;51.174;4.456;2023-02-28T12:48:31;1.98;;;1.80;;
25917;SDS011;13899;51.174;4.456;2023-02-28T12:51:17;1.60;;;1.50;;
25917;SDS011;13899;51.174;4.456;2023-02-28T12:54:12;2.63;;;2.42;;
25917;SDS011;13899;51.174;4.456;2023-02-28T12:56:56;2.13;;;1.75;;
25917;SDS011;13899;51.174;4.456;2023-02-28T12:59:41;2.80;;;2.33;;
25917;SDS011;13899;51.174;4.456;2023-02-28T13:10:52;2.45;;;2.25;;
25917;SDS011;13899;51.174;4.456;2023-02-28T13:13:21;3.05;;;2.80;;
25917;SDS011;13899;51.174;4.456;2023-02-28T13:16:08;3.33;;;2.45;;
25917;SDS011;13899;51.174;4.456;2023-02-28T13:18:37;4.43;;;4.03;;
25917;SDS011;13899;51.174;4.456;2023-02-28T13:21:08;4.07;;;3.67;;
25917;SDS011;13899;51.174;4.456;2023-02-28T13:26:22;2.00;;;1.80;;
25917;SDS011;13899;51.174;4.456;2023-02-28T13:28:59;2.20;;;1.80;;
25917;SDS011;13899;51.174;4.456;2023-02-28T13:37:30;4.05;;;3.78;;
25917;SDS011;13899;51.174;4.456;2023-02-28T13:40:26;3.45;;;2.92;;
25917;SDS011;13899;51.174;4.456;2023-02-28T13:43:02;2.72;;;2.05;;
25917;SDS011;13899;51.174;4.456;2023-02-28T13:45:28;5.97;;;5.68;;
25917;SDS011;13899;51.174;4.456;2023-02-28T13:48:03;7.47;;;7.07;;
25917;SDS011;13899;51.174;4.456;2023-02-28T13:50:41;8.55;;;8.05;;
25917;SDS011;13899;51.174;4.456;2023-02-28T14:05:02;3.55;;;3.25;;
25917;SDS011;13899;51.174;4.456;2023-02-28T14:07:43;8.50;;;8.00;;
25917;SDS011;13899;51.174;4.456;2023-02-28T14:16:16;2.65;;;2.45;;
25917;SDS011;13899;51.174;4.456;2023-02-28T14:18:58;2.97;;;2.53;;
25917;SDS011;13899;51.174;4.456;2023-02-28T14:22:12;2.63;;;2.42;;
25917;SDS011;13899;51.174;4.456;2023-02-28T14:31:15;2.90;;;2.60;;
25917;SDS011;13899;51.174;4.456;2023-02-28T14:36:36;5.85;;;5.45;;
25917;SDS011;13899;51.174;4.456;2023-02-28T14:39:12;5.10;;;4.70;;
25917;SDS011;13899;51.174;4.456;2023-02-28T14:41:44;2.92;;;2.60;;
25917;SDS011;13899;51.174;4.456;2023-02-28T14:44:15;11.50;;;10.70;;
25917;SDS011;13899;51.174;4.456;2023-02-28T14:46:42;4.57;;;4.28;;
25917;SDS011;13899;51.174;4.456;2023-02-28T14:51:41;8.00;;;7.50;;
25917;SDS011;13899;51.174;4.456;2023-02-28T14:54:12;3.95;;;3.72;;
25917;SDS011;13899;51.174;4.456;2023-02-28T14:56:40;4.95;;;4.57;;
25917;SDS011;13899;51.174;4.456;2023-02-28T15:02:12;4.78;;;4.38;;
25917;SDS011;13899;51.174;4.456;2023-02-28T15:04:42;3.33;;;2.75;;
25917;SDS011;13899;51.174;4.456;2023-02-28T15:07:14;3.13;;;2.80;;
25917;SDS011;13899;51.174;4.456;2023-02-28T15:09:40;4.47;;;4.18;;
25917;SDS011;13899;51.174;4.456;2023-02-28T15:12:06;3.45;;;3.15;;
25917;SDS011;13899;51.174;4.456;2023-02-28T15:14:42;3.05;;;2.47;;
25917;SDS011;13899;51.174;4.456;2023-02-28T15:17:11;5.40;;;5.00;;
25917;SDS011;13899;51.174;4.456;2023-02-28T15:19:47;7.35;;;6.78;;
25917;SDS011;13899;51.174;4.456;2023-02-28T15:22:18;3.13;;;2.80;;
25917;SDS011;13899;51.174;4.456;2023-02-28T15:24:50;3.55;;;2.53;;
25917;SDS011;13899;51.174;4.456;2023-02-28T15:27:20;3.72;;;2.95;;
25917;SDS011;13899;51.174;4.456;2023-02-28T15:29:50;3.08;;;2.50;;
25917;SDS011;13899;51.174;4.456;2023-02-28T15:34:53;3.97;;;3.55;;
25917;SDS011;13899;51.174;4.456;2023-02-28T15:40:05;3.17;;;2.88;;
25917;SDS011;13899;51.174;4.456;2023-02-28T15:42:42;4.10;;;3.80;;
25917;SDS011;13899;51.174;4.456;2023-02-28T15:45:56;4.47;;;4.05;;
25917;SDS011;13899;51.174;4.456;2023-02-28T15:48:32;3.00;;;2.63;;
25917;SDS011;13899;51.174;4.456;2023-02-28T15:53:56;2.95;;;2.50;;
25917;SDS011;13899;51.174;4.456;2023-02-28T16:01:32;3.42;;;2.90;;
25917;SDS011;13899;51.174;4.456;2023-02-28T16:04:02;9.55;;;9.05;;
25917;SDS011;13899;51.174;4.456;2023-02-28T16:06:34;4.13;;;3.83;;
25917;SDS011;13899;51.174;4.456;2023-02-28T16:09:03;3.72;;;2.55;;
25917;SDS011;13899;51.174;4.456;2023-02-28T16:11:32;3.53;;;3.08;;
25917;SDS011;13899;51.174;4.456;2023-02-28T16:14:00;3.33;;;2.70;;
25917;SDS011;13899;51.174;4.456;2023-02-28T16:16:26;4.50;;;2.85;;
25917;SDS011;13899;51.174;4.456;2023-02-28T16:18:52;8.80;;;8.30;;
25917;SDS011;13899;51.174;4.456;2023-02-28T16:21:18;7.68;;;7.25;;
25917;SDS011;13899;51.174;4.456;2023-02-28T16:23:44;6.75;;;6.35;;
25917;SDS011;13899;51.174;4.456;2023-02-28T16:26:14;4.95;;;3.63;;
25917;SDS011;13899;51.174;4.456;2023-02-28T16:28:49;7.10;;;6.55;;
25917;SDS011;13899;51.174;4.456;2023-02-28T16:31:16;3.65;;;3.35;;
25917;SDS011;13899;51.174;4.456;2023-02-28T16:33:43;4.13;;;3.78;;
25917;SDS011;13899;51.174;4.456;2023-02-28T16:36:21;4.63;;;3.55;;
25917;SDS011;13899;51.174;4.456;2023-02-28T16:38:50;3.83;;;3.53;;
25917;SDS011;13899;51.174;4.456;2023-02-28T16:41:20;3.87;;;3.57;;
25917;SDS011;13899;51.174;4.456;2023-02-28T16:43:50;4.45;;;3.90;;
25917;SDS011;13899;51.174;4.456;2023-02-28T16:46:18;7.57;;;3.50;;
25917;SDS011;13899;51.174;4.456;2023-02-28T16:48:46;3.95;;;3.60;;
25917;SDS011;13899;51.174;4.456;2023-02-28T16:51:16;4.28;;;3.17;;
25917;SDS011;13899;51.174;4.456;2023-02-28T16:53:42;3.97;;;3.67;;
25917;SDS011;13899;51.174;4.456;2023-02-28T16:56:14;7.85;;;7.35;;
25917;SDS011;13899;51.174;4.456;2023-02-28T16:58:45;4.47;;;4.05;;
25917;SDS011;13899;51.174;4.456;2023-02-28T17:01:11;7.40;;;6.90;;
25917;SDS011;13899;51.174;4.456;2023-02-28T17:03:37;8.02;;;7.53;;
25917;SDS011;13899;51.174;4.456;2023-02-28T17:06:03;8.73;;;8.03;;
25917;SDS011;13899;51.174;4.456;2023-02-28T17:08:29;6.68;;;5.13;;
25917;SDS011;13899;51.174;4.456;2023-02-28T17:10:57;7.13;;;6.63;;
25917;SDS011;13899;51.174;4.456;2023-02-28T17:13:23;7.28;;;6.80;;
25917;SDS011;13899;51.174;4.456;2023-02-28T17:15:49;7.03;;;6.32;;
25917;SDS011;13899;51.174;4.456;2023-02-28T17:18:15;4.80;;;4.40;;
25917;SDS011;13899;51.174;4.456;2023-02-28T17:20:44;5.10;;;4.60;;
25917;SDS011;13899;51.174;4.456;2023-02-28T17:25:36;7.93;;;6.25;;
25917;SDS011;13899;51.174;4.456;2023-02-28T17:28:02;7.90;;;7.40;;
25917;SDS011;13899;51.174;4.456;2023-02-28T17:30:28;5.90;;;5.43;;
25917;SDS011;13899;51.174;4.456;2023-02-28T17:32:54;7.93;;;6.68;;
25917;SDS011;13899;51.174;4.456;2023-02-28T17:37:46;9.30;;;8.60;;
25917;SDS011;13899;51.174;4.456;2023-02-28T17:40:13;7.63;;;5.83;;
25917;SDS011;13899;51.174;4.456;2023-02-28T17:42:47;7.05;;;6.43;;
25917;SDS011;13899;51.174;4.456;2023-02-28T17:45:17;8.13;;;7.32;;